| time (UTC) | temp F | wind direction | speed MPH | gust MPH | rain 1hr in | rain 24hr in | rain mn in | humidity % | barometer mb |
| 20260509161904 | 62 | 287 | 4.0 | 7.0 | 0.00 | 0.00 | 0.00 | 65 | 1005.2 |
| 20260509161403 | 61 | 242 | 4.0 | 8.0 | 0.00 | 0.00 | 0.00 | 63 | 1005.2 |
| 20260509160904 | 61 | 273 | 5.0 | 7.0 | 0.00 | 0.00 | 0.00 | 64 | 1005.3 |
| 20260509160403 | 61 | 253 | 3.0 | 9.0 | 0.00 | 0.00 | 0.00 | 65 | 1005.2 |
| 20260509155404 | 60 | 222 | 5.0 | 8.0 | 0.00 | 0.00 | 0.00 | 66 | 1005.4 |
| 20260509154903 | 60 | 227 | 4.0 | 9.0 | 0.00 | 0.00 | 0.00 | 67 | 1005.5 |
| 20260509154404 | 60 | 270 | 5.0 | 8.0 | 0.00 | 0.00 | 0.00 | 66 | 1005.5 |
| 20260509153903 | 60 | 256 | 4.0 | 6.0 | 0.00 | 0.00 | 0.00 | 67 | 1005.6 |
| 20260509153403 | 60 | 295 | 4.0 | 7.0 | 0.00 | 0.00 | 0.00 | 67 | 1005.7 |
| 20260509152904 | 60 | 252 | 5.0 | 9.0 | 0.00 | 0.00 | 0.00 | 67 | 1005.7 |
| 20260509152404 | 59 | 295 | 6.0 | 10.0 | 0.00 | 0.00 | 0.00 | 70 | 1005.8 |
| 20260509151904 | 59 | 277 | 4.0 | 9.0 | 0.00 | 0.00 | 0.00 | 72 | 1005.9 |
| 20260509151404 | 59 | 268 | 3.0 | 6.0 | 0.00 | 0.00 | 0.00 | 69 | 1005.9 |
| 20260509150904 | 59 | 271 | 4.0 | 6.0 | 0.00 | 0.00 | 0.00 | 68 | 1005.9 |
| 20260509150403 | 58 | 305 | 5.0 | 10.0 | 0.00 | 0.00 | 0.00 | 69 | 1005.8 |
| 20260509145904 | 58 | 254 | 4.0 | 7.0 | 0.00 | 0.00 | 0.00 | 70 | 1005.8 |
| 20260509145403 | 58 | 255 | 3.0 | 7.0 | 0.00 | 0.00 | 0.00 | 70 | 1005.9 |
| 20260509144403 | 58 | 261 | 2.0 | 8.0 | 0.00 | 0.00 | 0.00 | 71 | 1005.9 |
| 20260509143903 | 59 | 273 | 4.0 | 8.0 | 0.00 | 0.00 | 0.00 | 72 | 1005.9 |
| 20260509143403 | 58 | 255 | 4.0 | 7.0 | 0.00 | 0.00 | 0.00 | 73 | 1006.0 |
| 20260509142904 | 57 | 259 | 3.0 | 5.0 | 0.00 | 0.00 | 0.00 | 75 | 1006.1 |
| 20260509142403 | 57 | 249 | 3.0 | 6.0 | 0.00 | 0.00 | 0.00 | 74 | 1006.1 |
| 20260509141904 | 57 | 239 | 3.0 | 8.0 | 0.00 | 0.00 | 0.00 | 74 | 1006.1 |
| 20260509140903 | 57 | 234 | 3.0 | 6.0 | 0.00 | 0.00 | 0.00 | 75 | 1006.2 |
| 20260509140404 | 57 | 258 | 2.0 | 6.0 | 0.00 | 0.00 | 0.00 | 76 | 1006.3 |
| 20260509135904 | 56 | 283 | 7.0 | 12.0 | 0.00 | 0.00 | 0.00 | 76 | 1006.3 |
| 20260509135404 | 56 | 297 | 3.0 | 8.0 | 0.00 | 0.00 | 0.00 | 76 | 1006.3 |
| 20260509134903 | 56 | 305 | 2.0 | 6.0 | 0.00 | 0.00 | 0.00 | 76 | 1006.3 |
| 20260509134404 | 56 | 254 | 3.0 | 5.0 | 0.00 | 0.00 | 0.00 | 77 | 1006.3 |
| 20260509133903 | 56 | 264 | 3.0 | 7.0 | 0.00 | 0.00 | 0.00 | 76 | 1006.4 |
| 20260509132904 | 56 | 230 | 3.0 | 7.0 | 0.00 | 0.00 | 0.00 | 77 | 1006.4 |
| 20260509132403 | 55 | 252 | 3.0 | 7.0 | 0.00 | 0.00 | 0.00 | 77 | 1006.5 |
| 20260509131904 | 55 | 259 | 2.0 | 5.0 | 0.00 | 0.00 | 0.00 | 78 | 1006.5 |
| 20260509131403 | 55 | 224 | 3.0 | 8.0 | 0.00 | 0.00 | 0.00 | 78 | 1006.5 |
| 20260509130903 | 54 | 216 | 5.0 | 8.0 | 0.00 | 0.00 | 0.00 | 78 | 1006.5 |
| 20260509130404 | 54 | 214 | 3.0 | 6.0 | 0.00 | 0.00 | 0.00 | 79 | 1006.6 |
| 20260509125404 | 53 | 233 | 3.0 | 9.0 | 0.00 | 0.00 | 0.00 | 79 | 1006.6 |
| 20260509124903 | 53 | 226 | 3.0 | 7.0 | 0.00 | 0.00 | 0.00 | 80 | 1006.6 |
| 20260509124404 | 53 | 213 | 5.0 | 8.0 | 0.00 | 0.00 | 0.00 | 80 | 1006.7 |
| 20260509123903 | 52 | 249 | 2.0 | 5.0 | 0.00 | 0.00 | 0.00 | 80 | 1006.8 |
| 20260509123404 | 52 | 233 | 2.0 | 6.0 | 0.00 | 0.00 | 0.00 | 81 | 1006.8 |
| 20260509122904 | 52 | 198 | 3.0 | 7.0 | 0.00 | 0.00 | 0.00 | 81 | 1006.8 |
| 20260509122404 | 51 | 226 | 2.0 | 7.0 | 0.00 | 0.00 | 0.00 | 82 | 1006.9 |
| 20260509121904 | 51 | 209 | 3.0 | 7.0 | 0.00 | 0.00 | 0.00 | 83 | 1006.9 |
| 20260509121403 | 50 | 211 | 3.0 | 5.0 | 0.00 | 0.00 | 0.00 | 84 | 1006.9 |
| 20260509120903 | 50 | 215 | 3.0 | 5.0 | 0.00 | 0.00 | 0.00 | 83 | 1007.0 |
| 20260509115404 | 48 | 207 | 4.0 | 5.0 | 0.00 | 0.01 | 0.00 | 84 | 1006.8 |
| 20260509114904 | 48 | 211 | 3.0 | 5.0 | 0.00 | 0.01 | 0.00 | 85 | 1006.8 |
| 20260509114404 | 47 | 210 | 3.0 | 5.0 | 0.00 | 0.01 | 0.00 | 86 | 1006.9 |
| 20260509113404 | 45 | 207 | 1.0 | 3.0 | 0.00 | 0.02 | 0.00 | 86 | 1006.9 |
| 20260509112904 | 45 | 207 | 0.0 | 0.0 | 0.00 | 0.03 | 0.00 | 85 | 1006.9 |
| 20260509112404 | 45 | 207 | 0.0 | 0.0 | 0.00 | 0.04 | 0.00 | 85 | 1007.0 |
| 20260509111904 | 44 | 207 | 0.0 | 0.0 | 0.00 | 0.05 | 0.00 | 84 | 1007.1 |
| 20260509110904 | 45 | 207 | 0.0 | 0.0 | 0.00 | 0.06 | 0.00 | 83 | 1007.2 |
| 20260509110404 | 45 | 207 | 0.0 | 0.0 | 0.00 | 0.06 | 0.00 | 83 | 1007.2 |
| 20260509105904 | 45 | 207 | 0.0 | 0.0 | 0.00 | 0.06 | 0.00 | 82 | 1007.2 |
| 20260509105404 | 45 | 207 | 0.0 | 1.0 | 0.00 | 0.06 | 0.00 | 82 | 1007.3 |
| 20260509104904 | 45 | 207 | 0.0 | 0.0 | 0.00 | 0.06 | 0.00 | 82 | 1007.4 |
| 20260509104404 | 45 | 207 | 0.0 | 0.0 | 0.00 | 0.06 | 0.00 | 82 | 1007.3 |
| 20260509103904 | 45 | 207 | 0.0 | 1.0 | 0.00 | 0.06 | 0.00 | 82 | 1007.2 |
| 20260509103404 | 45 | 207 | 0.0 | 1.0 | 0.00 | 0.06 | 0.00 | 82 | 1007.1 |
| 20260509102404 | 45 | 207 | 1.0 | 2.0 | 0.00 | 0.06 | 0.00 | 82 | 1007.1 |
| 20260509101904 | 44 | 207 | 1.0 | 2.0 | 0.00 | 0.06 | 0.00 | 81 | 1007.0 |
| 20260509101403 | 44 | 210 | 1.0 | 2.0 | 0.00 | 0.06 | 0.00 | 81 | 1007.0 |
| 20260509100903 | 44 | 210 | 1.0 | 2.0 | 0.00 | 0.06 | 0.00 | 80 | 1007.0 |
| 20260509100404 | 44 | 205 | 1.0 | 2.0 | 0.00 | 0.06 | 0.00 | 80 | 1007.0 |
| 20260509095404 | 43 | 205 | 1.0 | 2.0 | 0.00 | 0.06 | 0.00 | 79 | 1007.0 |
| 20260509094903 | 43 | 205 | 2.0 | 2.0 | 0.00 | 0.06 | 0.00 | 78 | 1007.0 |
| 20260509094403 | 43 | 210 | 1.0 | 2.0 | 0.00 | 0.06 | 0.00 | 78 | 1007.0 |
| 20260509093904 | 43 | 210 | 1.0 | 2.0 | 0.00 | 0.06 | 0.00 | 78 | 1007.1 |
| 20260509093403 | 43 | 215 | 1.0 | 2.0 | 0.00 | 0.06 | 0.00 | 78 | 1007.1 |
| 20260509092904 | 43 | 211 | 1.0 | 2.0 | 0.00 | 0.06 | 0.00 | 78 | 1007.1 |
| 20260509092403 | 43 | 211 | 1.0 | 2.0 | 0.00 | 0.06 | 0.00 | 77 | 1007.0 |
| 20260509091904 | 43 | 206 | 1.0 | 2.0 | 0.00 | 0.06 | 0.00 | 77 | 1007.0 |
| 20260509090904 | 43 | 210 | 2.0 | 2.0 | 0.00 | 0.06 | 0.00 | 76 | 1007.1 |
| 20260509090404 | 42 | 209 | 1.0 | 2.0 | 0.00 | 0.06 | 0.00 | 75 | 1007.2 |
| 20260509085903 | 42 | 212 | 2.0 | 2.0 | 0.00 | 0.06 | 0.00 | 75 | 1007.2 |
| 20260509085403 | 42 | 208 | 1.0 | 2.0 | 0.00 | 0.06 | 0.00 | 75 | 1007.2 |
| 20260509083903 | 41 | 206 | 0.0 | 1.0 | 0.00 | 0.06 | 0.00 | 76 | 1007.3 |
| 20260509082904 | 40 | 200 | 1.0 | 1.0 | 0.00 | 0.06 | 0.00 | 77 | 1007.4 |
| 20260509082404 | 40 | 195 | 0.0 | 0.0 | 0.00 | 0.06 | 0.00 | 77 | 1007.3 |
| 20260509081404 | 40 | 195 | 0.0 | 0.0 | 0.00 | 0.06 | 0.00 | 76 | 1007.4 |
| 20260509080904 | 40 | 195 | 0.0 | 0.0 | 0.00 | 0.06 | 0.00 | 75 | 1007.4 |
| 20260509080403 | 40 | 195 | 0.0 | 0.0 | 0.00 | 0.06 | 0.00 | 75 | 1007.5 |
| 20260509075903 | 40 | 195 | 0.0 | 0.0 | 0.00 | 0.06 | 0.00 | 76 | 1007.5 |
| 20260509075403 | 40 | 195 | 0.0 | 0.0 | 0.00 | 0.06 | 0.00 | 76 | 1007.5 |
| 20260509074904 | 40 | 195 | 0.0 | 0.0 | 0.00 | 0.06 | 0.00 | 75 | 1007.5 |
| 20260509074404 | 40 | 195 | 0.0 | 0.0 | 0.00 | 0.06 | 0.00 | 76 | 1007.7 |
| 20260509073904 | 40 | 195 | 0.0 | 0.0 | 0.00 | 0.06 | 0.00 | 75 | 1007.7 |
| 20260509073404 | 40 | 195 | 0.0 | 0.0 | 0.00 | 0.06 | 0.00 | 75 | 1007.7 |
| 20260509072903 | 40 | 195 | 0.0 | 0.0 | 0.00 | 0.06 | 0.00 | 75 | 1007.7 |
| 20260509072403 | 40 | 195 | 0.0 | 0.0 | 0.00 | 0.06 | 0.00 | 74 | 1007.7 |
| 20260509071903 | 40 | 195 | 0.0 | 1.0 | 0.00 | 0.06 | 0.00 | 73 | 1007.7 |
| 20260509071403 | 40 | 195 | 0.0 | 0.0 | 0.00 | 0.06 | 0.00 | 72 | 1007.8 |
| 20260509070903 | 40 | 195 | 0.0 | 0.0 | 0.00 | 0.06 | 0.00 | 72 | 1007.8 |
| 20260509065903 | 40 | 195 | 0.0 | 0.0 | 0.00 | 0.06 | 0.00 | 73 | 1007.9 |
| 20260509065403 | 40 | 195 | 0.0 | 0.0 | 0.00 | 0.06 | 0.00 | 73 | 1007.9 |
| 20260509064904 | 40 | 195 | 0.0 | 0.0 | 0.00 | 0.06 | 0.00 | 73 | 1008.0 |
| 20260509063904 | 41 | 195 | 0.0 | 0.0 | 0.00 | 0.06 | 0.00 | 71 | 1008.0 |
| 20260509063404 | 41 | 195 | 0.0 | 0.0 | 0.00 | 0.06 | 0.00 | 71 | 1008.1 |
| 20260509062903 | 41 | 195 | 0.0 | 0.0 | 0.00 | 0.06 | 0.00 | 70 | 1008.2 |
| 20260509062403 | 41 | 195 | 0.0 | 1.0 | 0.00 | 0.06 | 0.00 | 69 | 1008.4 |
| 20260509061903 | 41 | 195 | 0.0 | 1.0 | 0.00 | 0.06 | 0.00 | 70 | 1008.4 |
| 20260509061403 | 41 | 204 | 1.0 | 2.0 | 0.00 | 0.06 | 0.00 | 70 | 1008.5 |
| 20260509060904 | 41 | 206 | 1.0 | 2.0 | 0.00 | 0.06 | 0.00 | 71 | 1008.6 |
| 20260509060404 | 40 | 278 | 1.0 | 1.0 | 0.00 | 0.06 | 0.00 | 73 | 1008.7 |
| 20260509055904 | 40 | 287 | 0.0 | 1.0 | 0.00 | 0.06 | 0.00 | 74 | 1008.7 |
| 20260509054904 | 40 | 281 | 0.0 | 1.0 | 0.00 | 0.06 | 0.00 | 74 | 1008.7 |
| 20260509053904 | 41 | 194 | 0.0 | 0.0 | 0.00 | 0.06 | 0.00 | 69 | 1008.9 |
| 20260509053404 | 41 | 194 | 0.0 | 0.0 | 0.00 | 0.06 | 0.00 | 69 | 1009.0 |
| 20260509052403 | 41 | 194 | 0.0 | 0.0 | 0.00 | 0.06 | 0.00 | 71 | 1009.0 |
| 20260509051903 | 41 | 194 | 0.0 | 0.0 | 0.00 | 0.06 | 0.00 | 71 | 1009.0 |
| 20260509051403 | 41 | 194 | 0.0 | 0.0 | 0.00 | 0.06 | 0.00 | 69 | 1009.1 |
| 20260509050904 | 42 | 194 | 0.0 | 0.0 | 0.00 | 0.06 | 0.00 | 69 | 1009.2 |
| 20260509050404 | 42 | 194 | 0.0 | 0.0 | 0.00 | 0.06 | 0.00 | 70 | 1009.2 |
| 20260509045903 | 42 | 194 | 0.0 | 1.0 | 0.00 | 0.06 | 0.00 | 68 | 1009.2 |
| 20260509045404 | 42 | 193 | 0.0 | 1.0 | 0.00 | 0.06 | 0.00 | 69 | 1009.3 |
| 20260509043903 | 42 | 199 | 1.0 | 2.0 | 0.00 | 0.06 | 0.00 | 68 | 1009.5 |
| 20260509042404 | 42 | 198 | 0.0 | 1.0 | 0.00 | 0.07 | 0.00 | 68 | 1009.6 |
| 20260509041904 | 42 | 198 | 0.0 | 0.0 | 0.00 | 0.07 | 0.00 | 68 | 1009.5 |
| 20260509041404 | 43 | 200 | 1.0 | 2.0 | 0.00 | 0.07 | 0.00 | 66 | 1009.6 |
| 20260509040404 | 43 | 202 | 2.0 | 3.0 | 0.00 | 0.07 | 0.00 | 65 | 1009.6 |
| 20260509035904 | 43 | 205 | 2.0 | 2.0 | 0.00 | 0.07 | 0.07 | 65 | 1009.7 |
| 20260509035403 | 43 | 202 | 1.0 | 2.0 | 0.00 | 0.07 | 0.07 | 64 | 1009.9 |
| 20260509034903 | 43 | 205 | 1.0 | 2.0 | 0.00 | 0.07 | 0.07 | 65 | 1009.8 |
| 20260509034403 | 43 | 207 | 1.0 | 2.0 | 0.00 | 0.07 | 0.07 | 65 | 1009.9 |
| 20260509033404 | 44 | 204 | 1.0 | 2.0 | 0.00 | 0.07 | 0.07 | 65 | 1009.9 |
| 20260509032904 | 44 | 200 | 1.0 | 2.0 | 0.00 | 0.07 | 0.07 | 64 | 1009.9 |
| 20260509032404 | 44 | 200 | 2.0 | 2.0 | 0.00 | 0.07 | 0.07 | 64 | 1010.0 |
| 20260509031903 | 44 | 197 | 1.0 | 1.0 | 0.00 | 0.07 | 0.07 | 65 | 1010.0 |
| 20260509031403 | 44 | 197 | 1.0 | 1.0 | 0.00 | 0.07 | 0.07 | 65 | 1010.0 |
| 20260509030903 | 45 | 204 | 1.0 | 1.0 | 0.00 | 0.07 | 0.07 | 65 | 1010.1 |
| 20260509030403 | 45 | 204 | 1.0 | 2.0 | 0.00 | 0.07 | 0.07 | 65 | 1010.1 |
| 20260509025904 | 45 | 205 | 2.0 | 2.0 | 0.00 | 0.07 | 0.07 | 65 | 1010.1 |
| 20260509025404 | 45 | 205 | 2.0 | 2.0 | 0.00 | 0.07 | 0.07 | 65 | 1010.0 |
| 20260509024903 | 45 | 207 | 2.0 | 2.0 | 0.00 | 0.07 | 0.07 | 64 | 1010.1 |
| 20260509024404 | 45 | 206 | 2.0 | 2.0 | 0.00 | 0.07 | 0.07 | 64 | 1010.1 |
| 20260509023903 | 44 | 209 | 1.0 | 2.0 | 0.00 | 0.07 | 0.07 | 64 | 1010.1 |
| 20260509023404 | 44 | 205 | 0.0 | 1.0 | 0.00 | 0.07 | 0.07 | 65 | 1010.1 |
| 20260509022904 | 44 | 205 | 1.0 | 1.0 | 0.00 | 0.07 | 0.07 | 66 | 1010.1 |
| 20260509022404 | 44 | 204 | 0.0 | 0.0 | 0.00 | 0.07 | 0.07 | 66 | 1009.9 |
| 20260509021903 | 44 | 204 | 0.0 | 0.0 | 0.00 | 0.07 | 0.07 | 66 | 1009.9 |
| 20260509021404 | 44 | 204 | 0.0 | 0.0 | 0.00 | 0.08 | 0.07 | 64 | 1009.9 |
| 20260509020903 | 45 | 204 | 0.0 | 0.0 | 0.00 | 0.08 | 0.07 | 65 | 1009.9 |
| 20260509020403 | 45 | 204 | 0.0 | 0.0 | 0.00 | 0.08 | 0.07 | 62 | 1009.9 |
| 20260509015903 | 46 | 204 | 0.0 | 0.0 | 0.00 | 0.08 | 0.07 | 61 | 1009.9 |
| 20260509015404 | 46 | 204 | 0.0 | 0.0 | 0.00 | 0.08 | 0.07 | 58 | 1009.9 |
| 20260509014904 | 46 | 204 | 0.0 | 0.0 | 0.00 | 0.09 | 0.07 | 57 | 1009.8 |
| 20260509014403 | 46 | 204 | 0.0 | 0.0 | 0.00 | 0.09 | 0.07 | 61 | 1009.8 |
| 20260509013403 | 47 | 204 | 0.0 | 0.0 | 0.00 | 0.09 | 0.07 | 59 | 1009.7 |
| 20260509012903 | 47 | 204 | 0.0 | 0.0 | 0.00 | 0.10 | 0.07 | 59 | 1009.7 |
| 20260509012403 | 48 | 204 | 0.0 | 0.0 | 0.00 | 0.10 | 0.07 | 60 | 1009.8 |
| 20260509011904 | 49 | 204 | 0.0 | 0.0 | 0.00 | 0.10 | 0.07 | 59 | 1009.7 |
| 20260509011404 | 49 | 204 | 0.0 | 1.0 | 0.00 | 0.10 | 0.07 | 56 | 1009.7 |
| 20260509010904 | 50 | 207 | 1.0 | 2.0 | 0.00 | 0.10 | 0.07 | 53 | 1009.7 |
| 20260509010404 | 50 | 207 | 1.0 | 2.0 | 0.00 | 0.10 | 0.07 | 55 | 1009.7 |
| 20260509005903 | 50 | 207 | 1.0 | 2.0 | 0.00 | 0.10 | 0.07 | 52 | 1009.7 |
| 20260509004903 | 51 | 205 | 0.0 | 1.0 | 0.00 | 0.10 | 0.07 | 52 | 1009.7 |
| 20260509003904 | 51 | 205 | 0.0 | 1.0 | 0.00 | 0.11 | 0.07 | 50 | 1009.5 |
| 20260509003404 | 52 | 205 | 0.0 | 1.0 | 0.00 | 0.12 | 0.07 | 50 | 1009.5 |
| 20260509002904 | 52 | 205 | 1.0 | 1.0 | 0.00 | 0.14 | 0.07 | 50 | 1009.4 |
| 20260509001904 | 53 | 205 | 0.0 | 1.0 | 0.00 | 0.15 | 0.07 | 50 | 1009.3 |
| 20260509000904 | 53 | 215 | 1.0 | 2.0 | 0.00 | 0.17 | 0.07 | 48 | 1009.2 |
| 20260509000404 | 54 | 248 | 0.0 | 1.0 | 0.00 | 0.18 | 0.07 | 47 | 1009.2 |
| 20260508235903 | 54 | 261 | 1.0 | 3.0 | 0.00 | 0.19 | 0.07 | 47 | 1009.3 |
| 20260508234403 | 55 | 251 | 2.0 | 6.0 | 0.00 | 0.21 | 0.07 | 47 | 1009.2 |
| 20260508233903 | 55 | 252 | 1.0 | 3.0 | 0.00 | 0.21 | 0.07 | 48 | 1009.2 |
| 20260508232903 | 55 | 264 | 2.0 | 6.0 | 0.00 | 0.21 | 0.07 | 48 | 1009.2 |
| 20260508231904 | 56 | 268 | 4.0 | 8.0 | 0.00 | 0.21 | 0.07 | 46 | 1009.1 |
| 20260508231404 | 56 | 281 | 2.0 | 3.0 | 0.00 | 0.21 | 0.07 | 48 | 1009.1 |
| 20260508230403 | 56 | 270 | 2.0 | 3.0 | 0.00 | 0.21 | 0.07 | 48 | 1009.1 |
| 20260508225903 | 56 | 255 | 3.0 | 5.0 | 0.00 | 0.21 | 0.07 | 47 | 1009.2 |
| 20260508225403 | 56 | 251 | 3.0 | 6.0 | 0.00 | 0.21 | 0.07 | 48 | 1009.2 |
| 20260508224403 | 56 | 255 | 3.0 | 5.0 | 0.00 | 0.21 | 0.07 | 53 | 1009.2 |
| 20260508223903 | 56 | 308 | 3.0 | 7.0 | 0.00 | 0.21 | 0.07 | 47 | 1009.2 |
| 20260508222904 | 56 | 286 | 3.0 | 7.0 | 0.00 | 0.21 | 0.07 | 51 | 1009.2 |
| 20260508222404 | 56 | 254 | 3.0 | 7.0 | 0.00 | 0.21 | 0.07 | 50 | 1009.2 |
| 20260508221904 | 55 | 303 | 3.0 | 6.0 | 0.00 | 0.21 | 0.07 | 52 | 1009.2 |
| 20260508221403 | 55 | 313 | 2.0 | 3.0 | 0.00 | 0.21 | 0.07 | 50 | 1009.2 |
| 20260508220904 | 55 | 249 | 1.0 | 3.0 | 0.00 | 0.21 | 0.07 | 51 | 1009.2 |
| 20260508220403 | 55 | 276 | 1.0 | 6.0 | 0.00 | 0.21 | 0.07 | 50 | 1009.3 |
| 20260508215403 | 56 | 332 | 3.0 | 5.0 | 0.00 | 0.21 | 0.07 | 49 | 1009.3 |
| 20260508214404 | 56 | 310 | 5.0 | 10.0 | 0.00 | 0.21 | 0.07 | 53 | 1009.4 |
| 20260508213903 | 57 | 330 | 3.0 | 5.0 | 0.00 | 0.21 | 0.07 | 47 | 1009.4 |
| 20260508213404 | 57 | 260 | 2.0 | 6.0 | 0.00 | 0.21 | 0.07 | 50 | 1009.4 |
| 20260508212904 | 57 | 255 | 2.0 | 7.0 | 0.00 | 0.21 | 0.07 | 49 | 1009.3 |
| 20260508212404 | 56 | 235 | 3.0 | 6.0 | 0.00 | 0.21 | 0.07 | 49 | 1009.3 |
| 20260508211904 | 56 | 273 | 1.0 | 6.0 | 0.00 | 0.21 | 0.07 | 50 | 1009.3 |
| 20260508211404 | 56 | 250 | 2.0 | 6.0 | 0.00 | 0.21 | 0.07 | 55 | 1009.3 |
| 20260508210904 | 56 | 300 | 5.0 | 8.0 | 0.00 | 0.21 | 0.07 | 51 | 1009.4 |
| 20260508210404 | 56 | 259 | 3.0 | 5.0 | 0.00 | 0.21 | 0.07 | 51 | 1009.4 |
| 20260508205904 | 55 | 207 | 4.0 | 7.0 | 0.00 | 0.21 | 0.07 | 51 | 1009.4 |
| 20260508205403 | 55 | 288 | 2.0 | 3.0 | 0.00 | 0.21 | 0.07 | 52 | 1009.4 |
| 20260508204903 | 55 | 299 | 1.0 | 3.0 | 0.00 | 0.21 | 0.07 | 50 | 1009.5 |
| 20260508204404 | 55 | 306 | 1.0 | 5.0 | 0.00 | 0.21 | 0.07 | 49 | 1009.5 |
| 20260508203904 | 55 | 208 | 1.0 | 3.0 | 0.00 | 0.21 | 0.07 | 50 | 1009.5 |
| 20260508203404 | 55 | 260 | 1.0 | 2.0 | 0.00 | 0.21 | 0.07 | 49 | 1009.6 |
| 20260508202904 | 55 | 286 | 2.0 | 3.0 | 0.00 | 0.21 | 0.07 | 50 | 1009.6 |
| 20260508202404 | 56 | 227 | 2.0 | 3.0 | 0.00 | 0.21 | 0.07 | 52 | 1009.7 |
| 20260508201904 | 56 | 258 | 3.0 | 5.0 | 0.00 | 0.21 | 0.07 | 50 | 1009.7 |
| 20260508201404 | 56 | 210 | 2.0 | 5.0 | 0.00 | 0.21 | 0.07 | 49 | 1009.7 |
| 20260508195904 | 55 | 148 | 1.0 | 3.0 | 0.00 | 0.21 | 0.07 | 51 | 1009.8 |
| 20260508194904 | 56 | 263 | 1.0 | 2.0 | 0.00 | 0.21 | 0.07 | 46 | 1010.0 |
| 20260508194404 | 56 | 172 | 0.0 | 2.0 | 0.00 | 0.21 | 0.07 | 45 | 1010.1 |
| 20260508193903 | 55 | 154 | 3.0 | 8.0 | 0.00 | 0.21 | 0.07 | 47 | 1010.2 |
| 20260508193404 | 55 | 267 | 3.0 | 6.0 | 0.00 | 0.21 | 0.07 | 48 | 1010.2 |
| 20260508192904 | 56 | 258 | 1.0 | 6.0 | 0.00 | 0.21 | 0.07 | 44 | 1010.3 |
| 20260508192403 | 56 | 223 | 2.0 | 5.0 | 0.00 | 0.21 | 0.07 | 48 | 1010.4 |
| 20260508191904 | 55 | 244 | 1.0 | 3.0 | 0.00 | 0.21 | 0.07 | 48 | 1010.4 |
| 20260508191404 | 55 | 208 | 4.0 | 7.0 | 0.00 | 0.21 | 0.07 | 46 | 1010.6 |
| 20260508190903 | 55 | 235 | 2.0 | 3.0 | 0.00 | 0.21 | 0.07 | 48 | 1010.6 |
| 20260508190404 | 55 | 301 | 6.0 | 10.0 | 0.00 | 0.21 | 0.07 | 47 | 1010.7 |
| 20260508185903 | 55 | 295 | 5.0 | 10.0 | 0.00 | 0.21 | 0.07 | 49 | 1010.7 |
| 20260508184903 | 54 | 275 | 2.0 | 12.0 | 0.00 | 0.21 | 0.07 | 52 | 1010.7 |
| 20260508184403 | 54 | 235 | 3.0 | 7.0 | 0.00 | 0.21 | 0.07 | 48 | 1010.7 |
| 20260508183903 | 54 | 272 | 2.0 | 8.0 | 0.00 | 0.21 | 0.07 | 48 | 1010.8 |
| 20260508183403 | 54 | 286 | 7.0 | 14.0 | 0.00 | 0.21 | 0.07 | 50 | 1010.8 |
| 20260508182903 | 55 | 288 | 7.0 | 12.0 | 0.00 | 0.21 | 0.07 | 47 | 1010.8 |
| 20260508181904 | 54 | 330 | 7.0 | 12.0 | 0.00 | 0.21 | 0.07 | 45 | 1010.8 |
| 20260508181404 | 55 | 325 | 3.0 | 10.0 | 0.00 | 0.21 | 0.07 | 55 | 1010.9 |
| 20260508180904 | 55 | 312 | 0.0 | 8.0 | 0.00 | 0.21 | 0.07 | 50 | 1010.9 |
| 20260508180404 | 54 | 103 | 3.0 | 6.0 | 0.00 | 0.21 | 0.07 | 48 | 1010.9 |
| 20260508175903 | 54 | 355 | 3.0 | 6.0 | 0.00 | 0.21 | 0.07 | 51 | 1011.0 |
| 20260508175403 | 54 | 288 | 3.0 | 10.0 | 0.00 | 0.21 | 0.07 | 49 | 1011.0 |
| 20260508174904 | 53 | 329 | 5.0 | 9.0 | 0.00 | 0.21 | 0.07 | 49 | 1011.0 |
| 20260508174405 | 53 | 325 | 7.0 | 13.0 | 0.00 | 0.21 | 0.07 | 54 | 1011.1 |
| 20260508173904 | 53 | 312 | 6.0 | 10.0 | 0.00 | 0.21 | 0.07 | 54 | 1011.1 |
| 20260508173404 | 53 | 349 | 6.0 | 13.0 | 0.00 | 0.21 | 0.07 | 58 | 1011.1 |
| 20260508172904 | 53 | 295 | 7.0 | 10.0 | 0.00 | 0.21 | 0.07 | 55 | 1011.1 |
| 20260508172404 | 52 | 322 | 7.0 | 12.0 | 0.00 | 0.21 | 0.07 | 54 | 1011.2 |
| 20260508171903 | 52 | 310 | 8.0 | 12.0 | 0.00 | 0.21 | 0.07 | 58 | 1011.2 |
| 20260508171403 | 52 | 296 | 3.0 | 9.0 | 0.00 | 0.21 | 0.07 | 60 | 1011.2 |
| 20260508170904 | 52 | 282 | 5.0 | 12.0 | 0.00 | 0.21 | 0.07 | 58 | 1011.3 |
| 20260508170404 | 52 | 284 | 7.0 | 13.0 | 0.00 | 0.21 | 0.07 | 60 | 1011.3 |
| 20260508165904 | 52 | 300 | 3.0 | 8.0 | 0.00 | 0.21 | 0.07 | 60 | 1011.3 |
| 20260508165403 | 52 | 293 | 6.0 | 10.0 | 0.00 | 0.21 | 0.07 | 60 | 1011.5 |
| 20260508164903 | 52 | 257 | 6.0 | 10.0 | 0.00 | 0.21 | 0.07 | 62 | 1011.5 |
| 20260508164404 | 51 | 319 | 4.0 | 9.0 | 0.00 | 0.21 | 0.07 | 61 | 1011.5 |
| 20260508163404 | 51 | 308 | 6.0 | 12.0 | 0.00 | 0.21 | 0.07 | 64 | 1011.6 |
| 20260508162904 | 50 | 267 | 3.0 | 8.0 | 0.00 | 0.21 | 0.07 | 65 | 1011.6 |
| 20260508162404 | 50 | 268 | 7.0 | 12.0 | 0.00 | 0.21 | 0.07 | 63 | 1011.7 |